This is the latest recevied weather packets stored in our database for station/object GW1491. If no packets are shown the sender has not sent any weather packets the latest 10 day(s).
| Time | Temp. | Humidity | Pressure | Rain* | Wind** | Luminosity | Snow |
|---|---|---|---|---|---|---|---|
| 1777620987 | 3.33° C | 96% | 1014.9 hPa | 0 mm | - | - | - |
| 1777618453 | 3.89° C | 93% | 1015.2 hPa | 0 mm | - | - | - |
| 1777615948 | 4.44° C | 91% | 1015.2 hPa | 0 mm | - | - | - |
| 1777613420 | 4.44° C | 89% | 1015.5 hPa | 0 mm | - | - | - |
| 1777605170 | 7.22° C | 80% | 1016.5 hPa | 0.25 mm | - | - | - |
| 1777604801 | 7.22° C | 81% | 1016.5 hPa | 0.25 mm | - | - | - |
| 1777602278 | 7.22° C | 78% | 1016.5 hPa | 0.25 mm | - | - | - |
| 1777600495 | 8.33° C | 73% | 1016.2 hPa | 0.25 mm | - | - | - |
| 1777598332 | 8.89° C | 71% | 1015.9 hPa | 0.25 mm | - | - | - |
| 1777595807 | 9.44° C | 69% | 1015.5 hPa | 0.25 mm | - | - | - |
| 1777592921 | 11.11° C | 63% | 1015.5 hPa | 0.25 mm | - | - | - |
| 1777590413 | 12.22° C | 60% | 1015.2 hPa | 0.25 mm | - | - | - |
| 1777588951 | 12.22° C | 61% | 1015.2 hPa | 0.25 mm | - | - | - |
| 1777584619 | 13.33° C | 71% | 1015.2 hPa | 0.25 mm | - | - | - |
| 1777583566 | 11.11° C | 76% | 1015.5 hPa | 0.25 mm | - | - | - |
| 1777573462 | 12.22° C | 75% | 1015.5 hPa | 0 mm | - | - | - |
| 1777573123 | 11.11° C | 77% | 1015.5 hPa | 0 mm | - | - | - |
| 1777568074 | 9.44° C | 83% | 1015.5 hPa | 0 mm | - | - | - |
| 1777564853 | 8.89° C | 89% | 1015.9 hPa | 0 mm | - | - | - |
| 1777564461 | 8.89° C | 90% | 1015.5 hPa | 0 mm | - | - | - |
| 1777555119 | 7.78° C | 99% | 1014.2 hPa | 0 mm | - | - | - |
| 1777554031 | 7.78° C | 99% | 1013.8 hPa | 0 mm | - | - | - |
| 1777552218 | 7.78° C | 99% | 1013.5 hPa | 0 mm | - | - | - |
| 1777547554 | 6.11° C | 99% | 1012.8 hPa | 0 mm | - | - | - |
| 1777543972 | 6.11° C | 99% | 1012.1 hPa | 0 mm | - | - | - |
* Rain since midnight (hover to see other rain measurements)
** Current wind speed in m/s (hover to see current wind gust speed)